createdAt,value
2018-05-03T00:00:05.302Z,991.45
2018-05-03T00:01:15.383Z,991.5
2018-05-03T00:02:25.459Z,991.51
2018-05-03T00:03:35.551Z,991.51
2018-05-03T00:04:45.693Z,991.52
2018-05-03T00:05:55.765Z,991.53
2018-05-03T00:07:05.846Z,991.54
2018-05-03T00:08:15.667Z,991.48
2018-05-03T00:09:25.234Z,991.46
2018-05-03T00:10:35.383Z,991.47
2018-05-03T00:11:45.442Z,991.43
2018-05-03T00:12:55.527Z,991.41
2018-05-03T00:14:05.641Z,991.48
2018-05-03T00:15:15.733Z,991.49
2018-05-03T00:16:25.856Z,991.52
2018-05-03T00:17:35.952Z,991.51
2018-05-03T00:18:46.039Z,991.48
2018-05-03T00:19:56.130Z,991.46
2018-05-03T00:21:05.937Z,991.48
2018-05-03T00:22:16.057Z,991.47
2018-05-03T00:23:26.155Z,991.44
2018-05-03T00:24:36.227Z,991.44
2018-05-03T00:25:46.337Z,991.38
2018-05-03T00:26:56.421Z,991.37
2018-05-03T00:28:06.537Z,991.33
2018-05-03T00:29:16.666Z,991.37
2018-05-03T00:30:26.751Z,991.35
2018-05-03T00:31:36.577Z,991.42
2018-05-03T00:32:46.674Z,991.44
2018-05-03T00:33:56.792Z,991.38
2018-05-03T00:35:06.874Z,991.42
2018-05-03T00:36:16.960Z,991.39
2018-05-03T00:37:26.794Z,991.38
2018-05-03T00:38:36.868Z,991.38
2018-05-03T00:39:46.982Z,991.41
2018-05-03T00:40:56.830Z,991.41
2018-05-03T00:42:06.919Z,991.37
2018-05-03T00:43:16.981Z,991.31
2018-05-03T00:44:27.057Z,991.34
2018-05-03T00:45:36.922Z,991.3
2018-05-03T00:46:46.743Z,991.3
2018-05-03T00:47:56.825Z,991.29
2018-05-03T00:49:06.895Z,991.27
2018-05-03T00:50:16.745Z,991.28
2018-05-03T00:51:26.829Z,991.28
2018-05-03T00:52:36.924Z,991.31
2018-05-03T00:53:47.041Z,991.34
2018-05-03T00:54:57.118Z,991.41
2018-05-03T00:56:07.208Z,991.41
2018-05-03T00:57:17.337Z,991.43
2018-05-03T00:58:27.403Z,991.46
2018-05-03T00:59:37.208Z,991.45
2018-05-03T01:00:47.014Z,991.46
2018-05-03T01:01:57.098Z,991.49
2018-05-03T01:03:07.232Z,991.45
2018-05-03T01:04:17.326Z,991.47
2018-05-03T01:05:27.406Z,991.51
2018-05-03T01:06:37.507Z,991.49
2018-05-03T01:07:47.610Z,991.48
2018-05-03T01:08:57.696Z,991.44
2018-05-03T01:10:07.523Z,991.44
2018-05-03T01:11:17.602Z,991.4
2018-05-03T01:12:27.699Z,991.4
2018-05-03T01:13:37.794Z,991.43
2018-05-03T01:14:47.653Z,991.36
2018-05-03T01:15:57.456Z,991.31
2018-05-03T01:17:07.281Z,991.31
2018-05-03T01:18:17.356Z,991.31
2018-05-03T01:19:27.434Z,991.28
2018-05-03T01:20:37.580Z,991.27
2018-05-03T01:21:47.669Z,991.2
2018-05-03T01:22:57.756Z,991.2
2018-05-03T01:24:07.944Z,991.18
2018-05-03T01:25:18.006Z,991.15
2018-05-03T01:26:28.091Z,991.14
2018-05-03T01:27:37.897Z,991.15
2018-05-03T01:28:47.980Z,991.16
2018-05-03T01:29:58.060Z,991.2
2018-05-03T01:31:08.147Z,991.18
2018-05-03T01:32:18.228Z,991.18
2018-05-03T01:33:28.299Z,991.17
2018-05-03T01:34:38.401Z,991.17
2018-05-03T01:35:48.482Z,991.15
2018-05-03T01:36:58.580Z,991.17
2018-05-03T01:38:08.659Z,991.19
2018-05-03T01:39:18.744Z,991.17
2018-05-03T01:40:28.578Z,991.12
2018-05-03T01:41:38.660Z,991.09
2018-05-03T01:42:48.744Z,991.11
2018-05-03T01:43:58.555Z,991.11
2018-05-03T01:45:08.652Z,991.12
2018-05-03T01:46:18.906Z,991.12
2018-05-03T01:47:29.998Z,991.1
2018-05-03T01:48:40.080Z,991.12
2018-05-03T01:49:49.930Z,991.1
2018-05-03T01:51:00.031Z,991.08
2018-05-03T01:52:09.834Z,991.04
2018-05-03T01:53:19.933Z,990.98
2018-05-03T01:54:30.026Z,990.97
2018-05-03T01:55:39.846Z,990.95
2018-05-03T01:56:49.923Z,990.98
2018-05-03T01:57:59.740Z,990.99
2018-05-03T01:59:09.829Z,990.94
2018-05-03T02:00:19.924Z,990.93
2018-05-03T02:01:30.021Z,990.94
2018-05-03T02:02:39.853Z,990.96
2018-05-03T02:03:49.680Z,990.93
2018-05-03T02:04:59.749Z,990.94
2018-05-03T02:06:09.686Z,990.87
2018-05-03T02:07:19.705Z,990.86
2018-05-03T02:08:29.798Z,990.8
2018-05-03T02:09:39.899Z,990.84
2018-05-03T02:10:50.003Z,990.81
2018-05-03T02:12:00.089Z,990.83
2018-05-03T02:13:10.172Z,990.77
2018-05-03T02:14:20.242Z,990.79
2018-05-03T02:15:30.311Z,990.8
2018-05-03T02:16:40.403Z,990.77
2018-05-03T02:17:50.450Z,990.79
2018-05-03T02:19:00.321Z,990.75
2018-05-03T02:20:10.405Z,990.75
2018-05-03T02:21:20.483Z,990.75
2018-05-03T02:22:30.589Z,990.76
2018-05-03T02:23:40.666Z,990.76
2018-05-03T02:24:50.752Z,990.83
2018-05-03T02:26:00.840Z,990.78
2018-05-03T02:27:10.920Z,990.8
2018-05-03T02:28:21.014Z,990.79
2018-05-03T02:29:30.836Z,990.83
2018-05-03T02:30:40.649Z,990.82
2018-05-03T02:31:50.461Z,990.83
2018-05-03T02:33:00.542Z,990.85
2018-05-03T02:34:10.626Z,990.87
2018-05-03T02:35:20.720Z,990.86
2018-05-03T02:36:30.816Z,990.81
2018-05-03T02:37:40.902Z,990.77
2018-05-03T02:38:50.999Z,990.68
2018-05-03T02:40:01.083Z,990.68
2018-05-03T02:41:11.188Z,990.62
2018-05-03T02:42:21.332Z,990.64
2018-05-03T02:43:31.431Z,990.61
2018-05-03T02:44:41.513Z,990.62
2018-05-03T02:45:51.620Z,990.63
2018-05-03T02:47:01.716Z,990.64
2018-05-03T02:48:11.839Z,990.65
2018-05-03T02:49:21.941Z,990.64
2018-05-03T02:50:32.019Z,990.65
2018-05-03T02:51:42.123Z,990.66
2018-05-03T02:52:52.216Z,990.66
2018-05-03T02:54:02.336Z,990.65
2018-05-03T02:55:12.428Z,990.64
2018-05-03T02:56:22.544Z,990.64
2018-05-03T02:57:32.368Z,990.61
2018-05-03T02:58:42.465Z,990.56
2018-05-03T02:59:52.274Z,990.58
2018-05-03T03:01:02.370Z,990.64
2018-05-03T03:02:12.484Z,990.69
2018-05-03T03:34:10.973Z,990.84
2018-05-03T03:35:20.801Z,990.86
2018-05-03T03:36:30.596Z,990.87
2018-05-03T03:37:40.668Z,990.87
2018-05-03T03:38:50.736Z,990.87
2018-05-03T03:40:00.847Z,990.89
2018-05-03T03:41:10.926Z,990.9
2018-05-03T03:42:21.016Z,990.89
2018-05-03T03:43:30.835Z,990.94
2018-05-03T03:44:40.912Z,990.89
2018-05-03T03:45:50.725Z,990.87
2018-05-03T03:47:00.805Z,990.88
2018-05-03T03:48:10.877Z,990.9
2018-05-03T03:49:20.936Z,990.89
2018-05-03T03:50:30.751Z,990.88
2018-05-03T03:51:40.352Z,990.86
2018-05-03T03:52:50.414Z,990.82
2018-05-03T03:54:00.228Z,990.84
2018-05-03T03:55:10.042Z,990.81
2018-05-03T03:56:20.095Z,990.76
2018-05-03T03:57:30.151Z,990.77
2018-05-03T03:58:39.703Z,990.79
2018-05-03T03:59:49.795Z,990.75
2018-05-03T04:00:59.868Z,990.78
2018-05-03T04:02:09.936Z,990.74
2018-05-03T04:03:20.072Z,990.74
2018-05-03T04:04:29.879Z,990.75
2018-05-03T04:05:39.953Z,990.77
2018-05-03T04:06:49.780Z,990.75
2018-05-03T04:07:59.861Z,990.75
2018-05-03T04:09:09.681Z,990.82
2018-05-03T04:10:19.764Z,990.8
2018-05-03T04:11:29.857Z,990.83
2018-05-03T04:12:39.949Z,990.81
2018-05-03T04:13:50.021Z,990.87
2018-05-03T04:15:00.120Z,990.87
2018-05-03T04:16:10.194Z,990.85
2018-05-03T04:17:20.265Z,990.87
2018-05-03T04:18:30.327Z,990.85
2018-05-03T04:19:40.404Z,990.81
2018-05-03T04:20:50.532Z,990.78
2018-05-03T04:22:00.077Z,990.79
2018-05-03T04:23:10.335Z,990.78
2018-05-03T04:24:20.409Z,990.76
2018-05-03T04:25:30.479Z,990.77
2018-05-03T04:26:40.629Z,990.81
2018-05-03T04:27:50.453Z,990.81
2018-05-03T04:29:00.272Z,990.83
2018-05-03T04:30:10.124Z,990.87
2018-05-03T04:31:19.963Z,990.93
2018-05-03T04:32:30.116Z,990.91
2018-05-03T04:33:39.937Z,990.95
2018-05-03T04:34:49.494Z,990.99
2018-05-03T04:35:59.590Z,991.01
2018-05-03T04:37:09.403Z,991.04
2018-05-03T04:38:18.944Z,991.06
2018-05-03T04:39:28.763Z,991.07
2018-05-03T04:40:38.828Z,991.09
2018-05-03T04:41:48.896Z,991.04
2018-05-03T04:42:58.723Z,991.03
2018-05-03T04:44:08.595Z,991.09
2018-05-03T04:45:18.418Z,991.13
2018-05-03T04:46:28.508Z,991.15
2018-05-03T04:47:38.577Z,991.22
2018-05-03T04:48:48.644Z,991.24
2018-05-03T04:49:58.727Z,991.2
2018-05-03T04:51:08.796Z,991.24
2018-05-03T04:52:18.608Z,991.24
2018-05-03T04:53:28.679Z,991.31
2018-05-03T04:54:38.761Z,991.34
2018-05-03T04:55:48.573Z,991.35
2018-05-03T04:56:58.662Z,991.45
2018-05-03T04:58:08.746Z,991.67
2018-05-03T04:59:18.839Z,991.77
2018-05-03T05:00:28.664Z,991.62
2018-05-03T05:01:38.541Z,991.51
2018-05-03T05:02:48.363Z,991.49
2018-05-03T05:03:58.455Z,991.51
2018-05-03T05:05:08.279Z,991.54
2018-05-03T05:06:18.358Z,991.6
2018-05-03T05:07:28.454Z,991.71
2018-05-03T05:08:38.547Z,991.67
2018-05-03T05:09:48.635Z,991.69
2018-05-03T05:10:58.728Z,991.68
2018-05-03T05:12:08.827Z,991.71
2018-05-03T05:13:18.917Z,991.66
2018-05-03T05:14:28.494Z,991.68
2018-05-03T05:15:38.581Z,991.73
2018-05-03T05:16:48.761Z,991.67
2018-05-03T05:17:58.935Z,991.71
2018-05-03T05:19:09.202Z,991.75
2018-05-03T05:20:19.300Z,991.72
2018-05-03T05:21:29.435Z,991.76
2018-05-03T05:22:39.229Z,991.78
2018-05-03T05:23:49.298Z,991.77
2018-05-03T05:24:59.122Z,991.82
2018-05-03T05:26:09.222Z,991.76
2018-05-03T05:27:19.360Z,991.75
2018-05-03T05:28:29.449Z,991.75
2018-05-03T05:29:39.532Z,991.71
2018-05-03T05:30:49.705Z,991.66
2018-05-03T05:31:59.914Z,991.68
2018-05-03T05:33:09.994Z,991.72
2018-05-03T05:34:20.125Z,991.68
2018-05-03T05:35:29.938Z,991.67
2018-05-03T05:36:40.022Z,991.68
2018-05-03T05:37:49.842Z,991.72
2018-05-03T05:38:59.982Z,991.7
2018-05-03T05:40:10.266Z,991.76
2018-05-03T05:41:20.364Z,991.76
2018-05-03T05:42:30.455Z,991.75
2018-05-03T05:43:40.568Z,991.77
2018-05-03T05:44:50.725Z,991.74
2018-05-03T05:46:00.807Z,991.7
2018-05-03T05:47:10.935Z,991.72
2018-05-03T05:48:20.773Z,991.7
2018-05-03T05:49:30.880Z,991.7
2018-05-03T05:50:40.959Z,991.69
2018-05-03T05:51:50.807Z,991.72
2018-05-03T05:53:00.901Z,991.74
2018-05-03T05:54:11.000Z,991.69
2018-05-03T05:55:21.185Z,991.57
2018-05-03T05:56:31.288Z,991.56
2018-05-03T05:57:41.655Z,991.6
2018-05-03T05:58:51.737Z,991.62
2018-05-03T06:00:01.837Z,991.59
2018-05-03T06:01:11.990Z,991.64
2018-05-03T06:02:22.091Z,991.58
2018-05-03T06:03:32.263Z,991.63
2018-05-03T06:04:42.343Z,991.6
2018-05-03T06:05:52.165Z,991.61
2018-05-03T06:07:01.990Z,991.58
2018-05-03T06:08:12.145Z,991.54
2018-05-03T06:09:22.222Z,991.55
2018-05-03T06:10:32.306Z,991.53
2018-05-03T06:11:42.399Z,991.57
2018-05-03T06:12:52.485Z,991.53
2018-05-03T06:14:02.624Z,991.55
2018-05-03T06:15:12.729Z,991.5
2018-05-03T06:16:22.828Z,991.53
2018-05-03T06:17:32.961Z,991.52
2018-05-03T06:18:43.190Z,991.51
2018-05-03T06:19:55.518Z,991.51
2018-05-03T06:21:07.478Z,991.48
2018-05-03T06:22:18.257Z,991.48
2018-05-03T06:23:28.672Z,991.51
2018-05-03T06:24:38.755Z,991.48
2018-05-03T06:25:48.887Z,991.53
2018-05-03T06:26:58.940Z,991.53
2018-05-03T06:28:08.765Z,991.56
2018-05-03T06:29:19.118Z,991.59
2018-05-03T06:30:29.510Z,991.55
2018-05-03T06:31:40.360Z,991.57
2018-05-03T06:32:51.446Z,991.6
2018-05-03T06:34:02.097Z,991.62
2018-05-03T06:35:13.422Z,991.65
2018-05-03T06:36:24.555Z,991.65
2018-05-03T06:37:34.744Z,991.63
2018-05-03T06:38:44.853Z,991.59
2018-05-03T06:39:55.239Z,991.61
2018-05-03T06:41:05.328Z,991.59
2018-05-03T06:42:15.659Z,991.59
2018-05-03T06:43:25.755Z,991.6
2018-05-03T06:44:35.951Z,991.6
2018-05-03T06:45:46.063Z,991.61
2018-05-03T06:46:56.170Z,991.64
2018-05-03T06:48:06.248Z,991.62
2018-05-03T06:49:16.126Z,991.64
2018-05-03T06:50:26.239Z,991.67
2018-05-03T06:51:36.373Z,991.63
2018-05-03T06:52:46.265Z,991.65
2018-05-03T06:53:56.348Z,991.71
2018-05-03T06:55:06.443Z,991.69
2018-05-03T06:56:16.522Z,991.72
2018-05-03T06:57:26.631Z,991.72
2018-05-03T06:58:36.818Z,991.7
2018-05-03T06:59:47.029Z,991.67
2018-05-03T07:00:57.131Z,991.65
2018-05-03T07:02:07.253Z,991.68
2018-05-03T07:03:17.351Z,991.69
2018-05-03T07:04:27.480Z,991.66
2018-05-03T07:05:37.440Z,991.68
2018-05-03T07:06:47.245Z,991.65
2018-05-03T07:07:57.102Z,991.69
2018-05-03T07:09:06.919Z,991.68
2018-05-03T07:10:17.006Z,991.69
2018-05-03T07:11:26.829Z,991.71
2018-05-03T07:12:37.234Z,991.73
2018-05-03T07:13:47.346Z,991.74
2018-05-03T07:14:57.441Z,991.81
2018-05-03T07:16:07.540Z,991.8
2018-05-03T07:17:17.815Z,991.8
2018-05-03T07:18:27.934Z,991.8
2018-05-03T07:19:38.038Z,991.78
2018-05-03T07:20:47.871Z,991.81
2018-05-03T07:21:57.450Z,991.83
2018-05-03T07:23:07.305Z,991.87
2018-05-03T07:24:17.392Z,991.86
2018-05-03T07:25:27.494Z,991.9
2018-05-03T07:26:37.328Z,991.91
2018-05-03T07:27:47.420Z,991.93
2018-05-03T07:28:57.515Z,991.91
2018-05-03T07:30:07.655Z,991.95
2018-05-03T07:31:17.508Z,991.94
2018-05-03T07:32:27.613Z,991.98
2018-05-03T07:33:37.727Z,991.99
2018-05-03T07:34:47.851Z,991.94
2018-05-03T07:35:57.925Z,991.93
2018-05-03T07:37:08.027Z,991.92
2018-05-03T07:38:18.107Z,991.91
2018-05-03T07:39:27.952Z,991.91
2018-05-03T07:40:38.149Z,991.9
2018-05-03T07:41:48.452Z,991.91
2018-05-03T07:42:58.558Z,991.91
2018-05-03T07:44:08.378Z,991.91
2018-05-03T07:45:18.468Z,991.93
2018-05-03T07:46:27.780Z,991.95
2018-05-03T07:47:37.656Z,991.98
2018-05-03T07:48:47.735Z,992
2018-05-03T07:49:57.811Z,991.99
2018-05-03T07:51:07.911Z,991.96
2018-05-03T07:52:17.994Z,991.96
2018-05-03T07:53:27.901Z,991.98
2018-05-03T07:54:37.731Z,991.95
2018-05-03T07:55:47.858Z,991.97
2018-05-03T07:56:57.708Z,991.95
2018-05-03T07:58:07.792Z,991.94
2018-05-03T07:59:18.153Z,991.96
2018-05-03T08:00:28.262Z,991.96
2018-05-03T08:01:37.881Z,991.91
2018-05-03T08:02:47.441Z,991.93
2018-05-03T08:03:57.545Z,991.88
2018-05-03T08:05:07.391Z,991.87
2018-05-03T08:06:17.217Z,991.89
2018-05-03T08:07:27.325Z,991.84
2018-05-03T08:08:37.423Z,991.84
2018-05-03T08:09:47.527Z,991.82
2018-05-03T08:10:57.404Z,991.84
2018-05-03T08:12:07.691Z,991.83
2018-05-03T08:13:17.785Z,991.81
2018-05-03T08:14:27.881Z,991.75
2018-05-03T08:15:37.968Z,991.76
2018-05-03T08:16:48.100Z,991.78
2018-05-03T08:17:58.328Z,991.73
2018-05-03T08:19:08.447Z,991.77
2018-05-03T08:20:18.319Z,991.77
2018-05-03T08:21:28.402Z,991.78
2018-05-03T08:22:38.564Z,991.83
2018-05-03T08:23:48.666Z,991.77
2018-05-03T08:24:58.736Z,991.78
2018-05-03T08:26:08.829Z,991.78
2018-05-03T08:27:18.678Z,991.8
2018-05-03T08:28:28.635Z,991.82
2018-05-03T08:29:38.650Z,991.82
2018-05-03T08:30:48.746Z,991.88
2018-05-03T08:31:58.865Z,991.93
2018-05-03T08:33:08.971Z,991.93
2018-05-03T08:34:19.150Z,991.93
2018-05-03T08:35:28.785Z,991.99
2018-05-03T08:36:38.877Z,991.96
2018-05-03T08:37:48.953Z,991.98
2018-05-03T08:38:59.050Z,992.01
2018-05-03T08:40:09.185Z,992.02
2018-05-03T08:41:19.009Z,992.02
2018-05-03T08:42:29.128Z,992
2018-05-03T08:43:39.211Z,992
2018-05-03T08:44:49.054Z,991.97
2018-05-03T08:45:59.299Z,991.95
2018-05-03T08:47:09.402Z,991.97
2018-05-03T08:48:19.515Z,991.9
2018-05-03T08:49:29.082Z,991.95
2018-05-03T08:50:39.184Z,992
2018-05-03T08:51:49.306Z,991.98
2018-05-03T08:52:59.403Z,992.03
2018-05-03T08:54:09.495Z,992.03
2018-05-03T08:55:19.345Z,992.05
2018-05-03T08:56:29.619Z,992.05
2018-05-03T08:57:39.753Z,992.03
2018-05-03T08:58:49.595Z,992.05
2018-05-03T08:59:59.686Z,992.07
2018-05-03T09:01:09.779Z,992.03
2018-05-03T09:02:20.053Z,992.07
2018-05-03T09:03:30.147Z,992.06
2018-05-03T09:04:40.246Z,992.01
2018-05-03T09:05:50.347Z,992.03
2018-05-03T09:07:00.439Z,991.99
2018-05-03T09:08:10.540Z,991.98
2018-05-03T09:09:20.628Z,991.94
2018-05-03T09:10:30.757Z,991.94
2018-05-03T09:11:40.851Z,991.96
2018-05-03T09:12:50.679Z,991.96
2018-05-03T09:14:00.789Z,991.96
2018-05-03T09:15:11.190Z,992
2018-05-03T09:16:21.033Z,992.01
2018-05-03T09:17:31.151Z,992.04
2018-05-03T09:18:41.261Z,992.03
2018-05-03T09:19:51.374Z,992.06
2018-05-03T09:21:01.486Z,992.02
2018-05-03T09:22:11.559Z,992.03
2018-05-03T09:23:21.688Z,992.01
2018-05-03T09:24:31.795Z,991.96
2018-05-03T09:25:41.913Z,991.96
2018-05-03T09:26:52.022Z,991.98
2018-05-03T09:28:01.594Z,992.03
2018-05-03T09:29:11.689Z,992.04
2018-05-03T09:30:21.782Z,992.06
2018-05-03T09:31:31.605Z,992.05
2018-05-03T09:32:41.717Z,992.05
2018-05-03T09:33:51.568Z,992.06
2018-05-03T09:35:01.424Z,992
2018-05-03T09:36:11.521Z,992.06
2018-05-03T09:37:21.084Z,992.02
2018-05-03T09:38:30.914Z,992.05
2018-05-03T09:39:40.725Z,992.02
2018-05-03T09:40:50.840Z,992.05
2018-05-03T09:42:00.926Z,992.03
2018-05-03T09:43:10.769Z,992.03
2018-05-03T09:44:20.844Z,992.07
2018-05-03T09:45:31.169Z,992.07
2018-05-03T09:46:41.278Z,992.06
2018-05-03T09:47:51.372Z,992.05
2018-05-03T09:49:01.469Z,992.08
2018-05-03T09:50:11.642Z,992.09
2018-05-03T09:51:21.752Z,992.11
2018-05-03T09:52:32.163Z,992.07
2018-05-03T09:53:42.106Z,992.03
2018-05-03T09:54:52.208Z,992.05
2018-05-03T09:56:02.318Z,992.03
2018-05-03T09:57:12.414Z,992.04
2018-05-03T09:58:22.242Z,992.04
2018-05-03T09:59:32.332Z,992.05
2018-05-03T10:00:42.414Z,992.05
2018-05-03T10:01:52.255Z,992.06
2018-05-03T10:03:02.382Z,992.07
2018-05-03T10:04:12.489Z,992.07
2018-05-03T10:05:22.334Z,992.08
2018-05-03T10:06:32.449Z,992.08
2018-05-03T10:07:42.591Z,992.09
2018-05-03T10:08:52.675Z,992.12
2018-05-03T10:10:02.772Z,992.07
2018-05-03T10:11:12.598Z,992.11
2018-05-03T10:12:22.429Z,992.09
2018-05-03T10:13:32.232Z,992.06
2018-05-03T10:14:42.395Z,992.13
2018-05-03T10:15:52.576Z,992.11
2018-05-03T10:17:02.694Z,992.1
2018-05-03T10:18:12.787Z,992.09
2018-05-03T10:19:22.943Z,992.08
2018-05-03T10:20:32.547Z,992.08
2018-05-03T10:21:42.648Z,992.11
2018-05-03T10:22:52.456Z,992.12
2018-05-03T10:24:02.284Z,992.14
2018-05-03T10:25:12.184Z,992.12
2018-05-03T10:26:22.297Z,992.13
2018-05-03T10:27:32.136Z,992.09
2018-05-03T10:28:42.229Z,992.09
2018-05-03T10:29:51.865Z,992.12
2018-05-03T10:31:02.236Z,992.12
2018-05-03T10:32:12.328Z,992.11
2018-05-03T10:33:22.423Z,992.11
2018-05-03T10:34:32.254Z,992.1
2018-05-03T10:35:42.182Z,992.07
2018-05-03T10:36:52.055Z,992.09
2018-05-03T10:38:01.887Z,992.1
2018-05-03T10:39:11.964Z,992.1
2018-05-03T10:40:22.050Z,992.09
2018-05-03T10:41:32.157Z,992.09
2018-05-03T10:42:41.849Z,992.04
2018-05-03T10:43:51.690Z,992.1
2018-05-03T10:45:01.528Z,992.03
2018-05-03T10:46:11.620Z,992.04
2018-05-03T10:47:21.467Z,992.04
2018-05-03T10:48:31.334Z,992.07
2018-05-03T10:49:41.185Z,992.09
2018-05-03T10:50:51.004Z,992.1
2018-05-03T10:52:00.848Z,992.09
2018-05-03T10:53:10.952Z,992.01
2018-05-03T10:54:21.102Z,992.08
2018-05-03T10:55:30.928Z,992.08
2018-05-03T10:56:40.750Z,992.03
2018-05-03T10:57:50.838Z,992.07
2018-05-03T10:59:00.952Z,992.05
2018-05-03T11:00:11.084Z,992.11
2018-05-03T11:01:20.913Z,992.05
2018-05-03T11:02:30.756Z,992.07
2018-05-03T11:03:40.839Z,992.07
2018-05-03T11:04:50.653Z,992.08
2018-05-03T11:06:00.728Z,992.07
2018-05-03T11:07:10.567Z,992.02
2018-05-03T11:08:20.663Z,992.04
2018-05-03T11:09:30.760Z,992.07
2018-05-03T11:10:40.849Z,992.05
2018-05-03T11:11:50.958Z,992.04
2018-05-03T11:13:01.154Z,992.02
2018-05-03T11:14:10.998Z,991.97
2018-05-03T11:15:20.837Z,991.98
2018-05-03T11:16:30.954Z,991.99
2018-05-03T11:17:41.187Z,991.99
2018-05-03T11:18:51.039Z,992.04
2018-05-03T11:20:01.119Z,992.01
2018-05-03T11:21:11.237Z,992.02
2018-05-03T11:22:20.802Z,991.99
2018-05-03T11:23:30.897Z,991.95
2018-05-03T11:24:41.025Z,991.94
2018-05-03T11:25:51.179Z,992
2018-05-03T11:27:01.509Z,991.99
2018-05-03T11:28:11.610Z,991.98
2018-05-03T11:29:21.727Z,992.01
2018-05-03T11:30:31.917Z,991.98
2018-05-03T11:31:42.083Z,991.99
2018-05-03T11:32:52.204Z,992
2018-05-03T11:34:02.068Z,992.02
2018-05-03T11:35:12.201Z,991.97
2018-05-03T11:36:22.355Z,991.94
2018-05-03T11:37:32.188Z,991.98
2018-05-03T11:38:42.048Z,991.91
2018-05-03T11:39:52.175Z,991.97
2018-05-03T11:41:02.286Z,991.98
2018-05-03T11:42:12.411Z,991.95
2018-05-03T11:43:22.493Z,992
2018-05-03T11:44:32.580Z,991.93
2018-05-03T11:45:42.688Z,991.97
2018-05-03T11:46:52.575Z,991.95
2018-05-03T11:48:02.680Z,991.98
2018-05-03T11:49:12.598Z,991.99
2018-05-03T11:50:22.711Z,992
2018-05-03T11:51:32.815Z,991.96
2018-05-03T11:52:42.643Z,991.97
2018-05-03T11:53:52.483Z,991.97
2018-05-03T11:55:02.590Z,991.97
2018-05-03T11:56:12.726Z,991.93
2018-05-03T11:57:22.887Z,991.9
2018-05-03T11:58:32.761Z,991.92
2018-05-03T11:59:42.859Z,991.91
2018-05-03T12:00:52.968Z,991.91
2018-05-03T12:02:03.047Z,991.96
2018-05-03T12:03:12.613Z,991.95
2018-05-03T12:04:22.439Z,991.97
2018-05-03T12:05:32.546Z,991.97
2018-05-03T12:06:42.655Z,991.93
2018-05-03T12:13:33.646Z,991.84
2018-05-03T12:14:43.853Z,991.83
2018-05-03T12:15:53.956Z,991.85
2018-05-03T12:17:04.055Z,991.88
2018-05-03T12:18:13.894Z,991.86
2018-05-03T12:19:24.129Z,991.83
2018-05-03T12:20:34.229Z,991.85
2018-05-03T12:21:44.320Z,991.85
2018-05-03T12:22:54.171Z,991.84
2018-05-03T12:24:03.984Z,991.79
2018-05-03T12:25:13.807Z,991.74
2018-05-03T12:26:23.930Z,991.76
2018-05-03T12:27:33.764Z,991.73
2018-05-03T12:28:43.932Z,991.71
2018-05-03T12:29:53.767Z,991.72
2018-05-03T12:31:03.603Z,991.65
2018-05-03T12:32:13.437Z,991.68
2018-05-03T12:33:23.543Z,991.63
2018-05-03T12:34:33.650Z,991.63
2018-05-03T12:35:43.763Z,991.67
2018-05-03T12:36:53.861Z,991.66
2018-05-03T12:38:03.695Z,991.62
2018-05-03T12:39:13.800Z,991.66
2018-05-03T12:40:23.664Z,991.67
2018-05-03T12:41:33.487Z,991.62
2018-05-03T12:42:43.597Z,991.63
2018-05-03T12:43:53.703Z,991.63
2018-05-03T12:45:03.541Z,991.62
2018-05-03T12:46:13.704Z,991.62
2018-05-03T12:47:23.593Z,991.64
2018-05-03T12:48:33.422Z,991.59
2018-05-03T12:49:43.503Z,991.59
2018-05-03T12:50:53.605Z,991.56
2018-05-03T12:52:03.758Z,991.56
2018-05-03T12:53:13.941Z,991.55
2018-05-03T12:54:24.043Z,991.58
2018-05-03T12:55:34.166Z,991.52
2018-05-03T12:56:44.255Z,991.5
2018-05-03T12:57:54.344Z,991.51
2018-05-03T12:59:04.425Z,991.49
2018-05-03T13:00:14.530Z,991.5
2018-05-03T13:01:24.360Z,991.52
2018-05-03T13:02:34.462Z,991.44
2018-05-03T13:03:44.605Z,991.43
2018-05-03T13:04:54.709Z,991.45
2018-05-03T13:06:04.823Z,991.45
2018-05-03T13:07:14.411Z,991.4
2018-05-03T13:08:24.511Z,991.41
2018-05-03T13:09:34.362Z,991.4
2018-05-03T13:10:44.463Z,991.4
2018-05-03T13:11:54.566Z,991.38
2018-05-03T13:13:04.396Z,991.37
2018-05-03T13:14:14.540Z,991.35
2018-05-03T13:15:24.660Z,991.31
2018-05-03T13:16:34.781Z,991.33
2018-05-03T13:17:44.864Z,991.32
2018-05-03T13:18:54.967Z,991.33
2018-05-03T13:20:05.114Z,991.31
2018-05-03T13:21:15.465Z,991.32
2018-05-03T13:22:25.311Z,991.31
2018-05-03T13:23:35.407Z,991.31
2018-05-03T13:24:45.526Z,991.32
2018-05-03T13:25:55.632Z,991.32
2018-05-03T13:27:05.800Z,991.33
2018-05-03T13:28:15.880Z,991.3
2018-05-03T13:29:25.976Z,991.3
2018-05-03T13:30:35.845Z,991.28
2018-05-03T13:31:45.962Z,991.25
2018-05-03T13:32:55.847Z,991.24
2018-05-03T13:34:05.673Z,991.25
2018-05-03T13:35:15.773Z,991.24
2018-05-03T13:36:25.865Z,991.23
2018-05-03T13:37:35.689Z,991.18
2018-05-03T13:38:45.787Z,991.15
2018-05-03T13:39:55.884Z,991.14
2018-05-03T13:41:05.976Z,991.18
2018-05-03T13:42:16.307Z,991.14
2018-05-03T13:43:26.392Z,991.17
2018-05-03T13:44:36.630Z,991.19
2018-05-03T13:45:46.729Z,991.12
2018-05-03T13:46:56.609Z,991.16
2018-05-03T13:48:06.733Z,991.16
2018-05-03T13:49:16.832Z,991.14
2018-05-03T13:50:26.944Z,991.13
2018-05-03T13:51:37.036Z,991.09
2018-05-03T13:52:46.893Z,991.08
2018-05-03T13:53:56.989Z,991.09
2018-05-03T13:55:07.080Z,991.06
2018-05-03T13:56:17.301Z,991.06
2018-05-03T13:57:27.399Z,991.06
2018-05-03T13:58:37.500Z,991.05
2018-05-03T13:59:47.603Z,991.08
2018-05-03T14:00:57.707Z,991.07
2018-05-03T14:02:07.607Z,991.06
2018-05-03T14:03:17.706Z,991.05
2018-05-03T14:04:27.527Z,991.08
2018-05-03T14:05:37.101Z,991.05
2018-05-03T14:06:47.214Z,991.04
2018-05-03T14:07:57.433Z,991.02
2018-05-03T14:09:07.532Z,991.05
2018-05-03T14:10:17.639Z,990.99
2018-05-03T14:11:27.760Z,991.03
2018-05-03T14:12:37.863Z,991
2018-05-03T14:13:47.956Z,990.99
2018-05-03T14:14:58.095Z,991.03
2018-05-03T14:16:07.936Z,991.05
2018-05-03T14:17:18.048Z,991
2018-05-03T14:18:27.910Z,991.04
2018-05-03T14:19:38.068Z,991.01
2018-05-03T14:20:47.922Z,991.06
2018-05-03T14:21:58.365Z,990.98
2018-05-03T14:23:08.205Z,991.01
2018-05-03T14:24:18.322Z,991.02
2018-05-03T14:25:28.200Z,991.04
2018-05-03T14:26:38.040Z,990.99
2018-05-03T14:27:48.164Z,991
2018-05-03T14:28:58.298Z,990.99
2018-05-03T14:30:07.853Z,990.98
2018-05-03T14:31:17.957Z,990.94
2018-05-03T14:32:28.051Z,990.94
2018-05-03T14:33:37.891Z,990.95
2018-05-03T14:34:47.988Z,990.93
2018-05-03T14:35:58.087Z,990.91
2018-05-03T14:37:08.235Z,990.93
2018-05-03T14:38:18.339Z,990.9
2018-05-03T14:39:28.420Z,990.89
2018-05-03T14:40:38.513Z,990.83
2018-05-03T14:41:48.592Z,990.87
2018-05-03T14:42:58.723Z,990.91
2018-05-03T14:44:08.569Z,990.86
2018-05-03T14:45:18.901Z,990.83
2018-05-03T14:46:29.009Z,990.86
2018-05-03T14:47:39.110Z,990.84
2018-05-03T14:48:48.714Z,990.83
2018-05-03T14:49:58.825Z,990.8
2018-05-03T14:51:08.658Z,990.82
2018-05-03T14:52:18.756Z,990.79
2018-05-03T14:53:28.594Z,990.78
2018-05-03T14:54:38.683Z,990.77
2018-05-03T14:55:48.530Z,990.76
2018-05-03T14:56:58.724Z,990.73
2018-05-03T14:58:08.829Z,990.78
2018-05-03T14:59:18.694Z,990.75
2018-05-03T15:00:28.801Z,990.75
2018-05-03T15:01:38.634Z,990.75
2018-05-03T15:02:48.732Z,990.75
2018-05-03T15:03:58.828Z,990.77
2018-05-03T15:05:08.931Z,990.75
2018-05-03T15:06:18.838Z,990.74
2018-05-03T15:07:28.952Z,990.73
2018-05-03T15:08:39.067Z,990.74
2018-05-03T15:09:49.162Z,990.74
2018-05-03T15:10:58.991Z,990.73
2018-05-03T15:12:09.237Z,990.7
2018-05-03T15:13:19.339Z,990.72